KAGS/AGS METAR and TAF weather

Enter ICAO airport designator
Station Type Date Time Source
KAGS METAR 2020/06/05 08:53 UTC NOAA

KAGS 050853Z AUTO 19003KT 10SM OVC006 22/21 A2995 RMK AO2 SLP139 T02220211 55005


Station Type Date Time Source
KAGS Decoded METAR 2020/06/05 08:53 UTC NOAA

AUGUSTA BUSH FIELD, GA, United States (KAGS) 33-22N 081-58W 44M
Jun 05, 2020 - 04:53 AM EDT / 2020.06.05 0853 UTC
Wind: from the S (190 degrees) at 3 MPH (3 KT):0
Visibility: 10 mile(s):0
Sky conditions: overcast
Temperature: 72.0 F (22.2 C)
Dew Point: 70.0 F (21.1 C)
Relative Humidity: 93%
Pressure (altimeter): 29.95 in. Hg (1014 hPa)
Pressure tendency: 0.01 inches (0.5 hPa) lower than three hours ago
ob: KAGS 050853Z AUTO 19003KT 10SM OVC006 22/21 A2995 RMK AO2 SLP139 T02220211 55005
cycle: 9

Station Type Date Time Source
KAGS TAF 2020/06/05 09:48 UTC NOAA

TAF KAGS 050847Z 0509/0606 VRB03KT P6SM OVC006
FM051300 22005KT P6SM BKN020
FM051500 23008KT P6SM VCSH SCT025 BKN060

Example: see airport list